Am Tubarao — A8ZA9 — position and weather

sailwx.info

Track history (hours):
 
Tides and Currents Weather Stations Pressure Air Temp Water Temp Dewpoint Dewpoint Depression Visibility Wind Speed Wind Dir Waves Ship Positions

Am Tubarao

Last reported at 2014-Nov-01 09:31 UTC. Time now 2014-Nov-01 09:48 UTC.
Position N 54°22' E 018°40'.

Length 230 m; draft 5.4 m.

Type: Cargo ship. MMSI: 636015171.

Date/timePositionNaut miles runAvg speedWind from/ knotsBaromVisibWave heightAir tempDewpointWater temp
2014-Nov-01 09:31N 54°22' E 018°40'0 0.0
2014-Nov-01 08:31N 54°22' E 018°40'0 0.0
2014-Nov-01 07:31N 54°22' E 018°40'0 0.0
2014-Nov-01 06:31N 54°22' E 018°40'0 0.0
2014-Nov-01 05:31N 54°22' E 018°40'0 0.0
2014-Nov-01 04:31N 54°22' E 018°40'0 0.0
2014-Nov-01 03:31N 54°22' E 018°40'0 0.0
2014-Nov-01 02:31N 54°22' E 018°40'0 0.0
2014-Nov-01 01:31N 54°22' E 018°40'0 0.0
2014-Nov-01 00:31N 54°22' E 018°40'0 0.0
2014-Oct-31 23:31N 54°22' E 018°40'0 0.0
2014-Oct-31 22:31N 54°22' E 018°40'0 0.0
2014-Oct-31 21:31N 54°22' E 018°40'0 0.0
2014-Oct-31 20:31N 54°22' E 018°40'0 0.0
2014-Oct-31 19:31N 54°22' E 018°40'0 0.0
2014-Oct-31 18:31N 54°22' E 018°40'0 0.0
2014-Oct-31 17:31N 54°22' E 018°40'0 0.0
2014-Oct-31 15:33N 54°22' E 018°40'0 0.0
2014-Oct-31 14:33N 54°22' E 018°40'0 0.0
2014-Oct-31 13:33N 54°22' E 018°40'0 0.0
2014-Oct-31 12:33N 54°22' E 018°40'0 0.0
2014-Oct-31 11:33N 54°22' E 018°40'0 0.0
2014-Oct-31 10:33N 54°22' E 018°40'0 0.0
2014-Oct-31 09:33N 54°22' E 018°40'0 0.0
2014-Oct-31 08:33N 54°22' E 018°40'0 0.0
2014-Oct-31 07:33N 54°22' E 018°40'0 0.0
2014-Oct-31 06:33N 54°22' E 018°40'0 0.0
2014-Oct-31 05:33N 54°22' E 018°40'0 0.0
2014-Oct-31 04:33N 54°22' E 018°40'0 0.0
2014-Oct-31 03:33N 54°22' E 018°40'0 0.0
2014-Oct-31 02:33N 54°22' E 018°40'0 0.0
2014-Oct-31 01:33N 54°22' E 018°40'0 0.0
2014-Oct-31 00:33N 54°22' E 018°40'0 0.0
2014-Oct-30 23:33N 54°22' E 018°40'0 0.0
2014-Oct-30 22:33N 54°22' E 018°40'0 0.0
2014-Oct-30 21:33N 54°22' E 018°40'0 0.0
2014-Oct-30 20:33N 54°22' E 018°40'0 0.0
2014-Oct-30 19:32N 54°22' E 018°40'0 0.0
2014-Oct-30 18:33N 54°22' E 018°40'0 0.0
2014-Oct-30 17:32N 54°22' E 018°40'0 0.0
2014-Oct-30 16:33N 54°22' E 018°40'0 0.0
2014-Oct-30 15:32N 54°22' E 018°40'0 0.0
2014-Oct-30 14:32N 54°22' E 018°40'0 0.0
2014-Oct-30 13:32N 54°22' E 018°40'0 0.0
2014-Oct-30 12:32N 54°22' E 018°40'0 0.0
2014-Oct-30 11:32N 54°22' E 018°40'0 0.0
2014-Oct-30 10:32N 54°22' E 018°40'0 0.0
2014-Oct-30 09:32N 54°22' E 018°40'0 0.0
2014-Oct-30 08:32N 54°22' E 018°40'0 0.0
2014-Oct-30 07:33N 54°22' E 018°40'2 1.9
2014-Oct-30 06:33N 54°24' E 018°40'4 3.6
2014-Oct-30 05:33N 54°28' E 018°41'0 0.0
2014-Oct-30 04:31N 54°28' E 018°41'0 0.0
2014-Oct-30 03:31N 54°28' E 018°41'0 0.0
2014-Oct-30 02:31N 54°28' E 018°41'0 0.1
2014-Oct-30 01:31N 54°28' E 018°41'0 0.1
2014-Oct-30 00:31N 54°28' E 018°41'0 0.0
2014-Oct-29 23:31N 54°28' E 018°41'0 0.1
2014-Oct-29 22:31N 54°28' E 018°41'0 0.1
2014-Oct-29 21:31N 54°28' E 018°41'0 0.1
2014-Oct-29 20:31N 54°28' E 018°41'0 0.0
2014-Oct-29 19:31N 54°28' E 018°41'0 0.0
2014-Oct-29 18:31N 54°28' E 018°41'0 0.1
2014-Oct-29 17:31N 54°28' E 018°41'0 0.0
2014-Oct-29 16:34N 54°28' E 018°41'2 2.0
2014-Oct-29 15:34N 54°29' E 018°43'7 6.7
2014-Oct-29 14:34N 54°34' E 018°51'9 9.2
2014-Oct-29 13:34N 54°42' E 018°58'8 8.1
2014-Oct-29 12:33N 54°49' E 018°51'10 9.8
2014-Oct-29 11:34N 54°56' E 018°38'10 9.5
2014-Oct-29 10:33N 55°00' E 018°23'2611.3
2014-Oct-29 08:13N 54°55' E 017°38'1014.1
2014-Oct-29 07:29N 54°52' E 017°21'1110.8
2014-Oct-29 06:30N 54°50' E 017°03'1010.2
2014-Oct-29 05:30N 54°48' E 016°45'4510.3
2014-Oct-29 01:10N 54°41' E 015°29'810.4
2014-Oct-29 00:25N 54°40' E 015°15'910.2
2014-Oct-28 23:33N 54°39' E 015°00'1010.2
2014-Oct-28 22:33N 54°37' E 014°43'1110.0
2014-Oct-28 21:27N 54°36' E 014°24'10 9.7
2014-Oct-28 20:24N 54°39' E 014°07'8 9.5
2014-Oct-28 19:33N 54°44' E 013°56'10 9.6
2014-Oct-28 18:29N 54°51' E 013°43'9 9.6
2014-Oct-28 17:33N 54°58' E 013°33'10 9.7
2014-Oct-28 16:32N 55°04' E 013°20'10 9.7
2014-Oct-28 15:33N 55°11' E 013°08'10 9.6
2014-Oct-28 14:33N 55°14' E 012°53'9 9.4
2014-Oct-28 13:33N 55°19' E 012°38'9 8.9
2014-Oct-28 12:33N 55°28' E 012°41'10 9.5
2014-Oct-28 11:33N 55°37' E 012°42'1312.8
2014-Oct-28 10:33N 55°50' E 012°42'1312.6
2014-Oct-28 09:33N 56°02' E 012°38'9 9.4
2014-Oct-28 08:33N 56°09' E 012°26'9 9.2
2014-Oct-28 07:33N 56°14' E 012°12'10 9.7
2014-Oct-28 06:33N 56°22' E 012°01'10 9.7
2014-Oct-28 05:33N 56°31' E 011°58'10 9.8
2014-Oct-28 04:33N 56°41' E 011°54'10 9.7
2014-Oct-28 03:33N 56°50' E 011°49'9 9.2
2014-Oct-28 02:32N 56°59' E 011°43'9 9.2
2014-Oct-28 01:33N 57°07' E 011°38'9 9.0
2014-Oct-28 00:33N 57°16' E 011°32'9 9.1
2014-Oct-27 23:33N 57°24' E 011°26'10 9.8
2014-Oct-27 22:33N 57°32' E 011°15'1010.0
2014-Oct-27 21:33N 57°39' E 011°02'10 9.6
2014-Oct-27 20:33N 57°45' E 010°49'1110.8
2014-Oct-27 19:33N 57°48' E 010°29'1111.5
2014-Oct-27 18:33N 57°48' E 010°07'439 9.7
2014-Oct-25 21:22N 51°46' E 002°56'1011.9
2014-Oct-25 20:33N 51°43' E 003°11'1111.3
2014-Oct-25 19:33N 51°32' E 003°06'8 8.1
2014-Oct-25 18:34N 51°24' E 003°07'1615.6
2014-Oct-25 17:34N 51°26' E 003°32'7 6.6
2014-Oct-25 16:33N 51°27' E 003°42'0 0.2
2014-Oct-25 15:28N 51°27' E 003°42'0 0.0
2014-Oct-25 14:31N 51°27' E 003°42'0 0.0
2014-Oct-25 13:31N 51°27' E 003°42'0 0.0
2014-Oct-25 12:28N 51°27' E 003°42'0 0.0
2014-Oct-25 11:31N 51°27' E 003°42'0 0.0
2014-Oct-25 10:31N 51°27' E 003°42'0 0.0
2014-Oct-25 09:31N 51°27' E 003°42'0 0.0
2014-Oct-25 08:25N 51°27' E 003°42'0 0.0
2014-Oct-25 07:31N 51°27' E 003°42'0 0.0
2014-Oct-25 06:25N 51°27' E 003°42'0 0.0
2014-Oct-25 05:31N 51°27' E 003°42'0 0.0
2014-Oct-25 04:31N 51°27' E 003°42'0 0.0
2014-Oct-25 03:31N 51°27' E 003°42'0 0.0
2014-Oct-25 02:28N 51°27' E 003°42'0 0.0
2014-Oct-25 01:31N 51°27' E 003°42'0 0.0
2014-Oct-25 00:31N 51°27' E 003°42'0 0.0
2014-Oct-24 23:28N 51°27' E 003°42'0 0.0
2014-Oct-24 22:28N 51°27' E 003°42'0 0.0
2014-Oct-24 21:28N 51°27' E 003°42'0 0.0
2014-Oct-24 20:31N 51°27' E 003°42'0 0.0
2014-Oct-24 19:31N 51°27' E 003°42'0 0.0
2014-Oct-24 18:31N 51°27' E 003°42'0 0.0
2014-Oct-24 17:31N 51°27' E 003°42'0 0.0
2014-Oct-24 16:31N 51°27' E 003°42'0 0.0
2014-Oct-24 15:28N 51°27' E 003°42'0 0.0
2014-Oct-24 14:31N 51°27' E 003°42'0 0.0
2014-Oct-24 13:31N 51°27' E 003°42'0 0.0
2014-Oct-24 12:31N 51°27' E 003°42'0 0.0
2014-Oct-24 11:31N 51°27' E 003°42'0 0.0
2014-Oct-24 10:28N 51°27' E 003°42'0 0.0
2014-Oct-24 09:31N 51°27' E 003°42'0 0.0
2014-Oct-24 08:28N 51°27' E 003°42'0 0.0
2014-Oct-24 07:31N 51°27' E 003°42'0 0.0
2014-Oct-24 06:31N 51°27' E 003°42'0 0.0
2014-Oct-24 05:31N 51°27' E 003°42'0 0.0
2014-Oct-24 04:31N 51°27' E 003°42'0 0.0
2014-Oct-24 03:31N 51°27' E 003°42'0 0.0
2014-Oct-24 02:28N 51°27' E 003°42'0 0.0
2014-Oct-24 01:28N 51°27' E 003°42'0 0.0
2014-Oct-24 00:31N 51°27' E 003°42'0 0.0
2014-Oct-23 23:31N 51°27' E 003°42'0 0.0
2014-Oct-23 22:31N 51°27' E 003°42'0 0.0
2014-Oct-23 21:31N 51°27' E 003°42'0 0.0
2014-Oct-23 20:31N 51°27' E 003°42'0 0.0
2014-Oct-23 19:28N 51°27' E 003°42'0 0.0
2014-Oct-23 18:31N 51°27' E 003°42'0 0.0
2014-Oct-23 17:31N 51°27' E 003°42'0 0.0
2014-Oct-23 16:31N 51°27' E 003°42'0 0.0
2014-Oct-23 15:31N 51°27' E 003°42'0 0.0
2014-Oct-23 14:31N 51°27' E 003°42'0 0.0
2014-Oct-23 13:31N 51°27' E 003°42'0 0.0
2014-Oct-23 12:28N 51°27' E 003°42'0 0.0
2014-Oct-23 11:28N 51°27' E 003°42'0 0.0
2014-Oct-23 10:31N 51°27' E 003°42'0 0.0
2014-Oct-23 09:31N 51°27' E 003°42'0 0.0
2014-Oct-23 08:31N 51°27' E 003°42'0 0.0
2014-Oct-23 07:33N 51°27' E 003°42'1 1.0
2014-Oct-23 06:33N 51°27' E 003°41'4 4.3
2014-Oct-23 05:33N 51°26' E 003°35'10 9.8
2014-Oct-23 04:33N 51°24' E 003°20'1111.1
2014-Oct-23 03:33N 51°25' E 003°02'1211.5
2014-Oct-23 02:32N 51°23' E 002°43'6 6.1
2014-Oct-23 01:33N 51°22' E 002°34'9 8.9
2014-Oct-23 00:33N 51°20' E 002°20'1010.1
2014-Oct-22 23:34N 51°15' E 002°06'1110.9
2014-Oct-22 22:33N 51°09' E 001°51'7 6.6
2014-Oct-22 21:34N 51°02' E 001°49'8 8.4
2014-Oct-22 20:33N 51°03' E 002°02'1211.9
2014-Oct-22 19:33N 51°04' E 002°21'1 0.6
2014-Oct-22 18:33N 51°03' E 002°20'1 1.0
2014-Oct-22 17:33N 51°03' E 002°19'0 0.1
2014-Oct-22 16:33N 51°03' E 002°19'0 0.0
2014-Oct-22 15:33N 51°03' E 002°19'0 0.0
2014-Oct-22 14:33N 51°03' E 002°19'0 0.0
2014-Oct-22 13:33N 51°03' E 002°19'0 0.0
2014-Oct-22 12:33N 51°03' E 002°19'0 0.0
2014-Oct-22 11:30N 51°03' E 002°19'0 0.0
2014-Oct-22 10:33N 51°03' E 002°19'0 0.0
2014-Oct-22 09:33N 51°03' E 002°19'  
Track history (hours):
 
Tides and Currents Weather Stations Pressure Air Temp Water Temp Dewpoint Dewpoint Depression Visibility Wind Speed Wind Dir Waves Ship Positions

Am Tubarao

Last reported at 2014-Nov-01 09:31 UTC. Time now 2014-Nov-01 09:48 UTC.
Position N 54°22' E 018°40'.

Length 230 m; draft 5.4 m.

Type: Cargo ship. MMSI: 636015171.

Date/timePositionNaut miles runAvg speedWind from/ knotsBaromVisibWave heightAir tempDewpointWater temp
2014-Nov-01 09:31N 54°22' E 018°40'0 0.0
2014-Nov-01 08:31N 54°22' E 018°40'0 0.0
2014-Nov-01 07:31N 54°22' E 018°40'0 0.0
2014-Nov-01 06:31N 54°22' E 018°40'0 0.0
2014-Nov-01 05:31N 54°22' E 018°40'0 0.0
2014-Nov-01 04:31N 54°22' E 018°40'0 0.0
2014-Nov-01 03:31N 54°22' E 018°40'0 0.0
2014-Nov-01 02:31N 54°22' E 018°40'0 0.0
2014-Nov-01 01:31N 54°22' E 018°40'0 0.0
2014-Nov-01 00:31N 54°22' E 018°40'0 0.0
2014-Oct-31 23:31N 54°22' E 018°40'0 0.0
2014-Oct-31 22:31N 54°22' E 018°40'0 0.0
2014-Oct-31 21:31N 54°22' E 018°40'0 0.0
2014-Oct-31 20:31N 54°22' E 018°40'0 0.0
2014-Oct-31 19:31N 54°22' E 018°40'0 0.0
2014-Oct-31 18:31N 54°22' E 018°40'0 0.0
2014-Oct-31 17:31N 54°22' E 018°40'0 0.0
2014-Oct-31 15:33N 54°22' E 018°40'0 0.0
2014-Oct-31 14:33N 54°22' E 018°40'0 0.0
2014-Oct-31 13:33N 54°22' E 018°40'0 0.0
2014-Oct-31 12:33N 54°22' E 018°40'0 0.0
2014-Oct-31 11:33N 54°22' E 018°40'0 0.0
2014-Oct-31 10:33N 54°22' E 018°40'0 0.0
2014-Oct-31 09:33N 54°22' E 018°40'0 0.0
2014-Oct-31 08:33N 54°22' E 018°40'0 0.0
2014-Oct-31 07:33N 54°22' E 018°40'0 0.0
2014-Oct-31 06:33N 54°22' E 018°40'0 0.0
2014-Oct-31 05:33N 54°22' E 018°40'0 0.0
2014-Oct-31 04:33N 54°22' E 018°40'0 0.0
2014-Oct-31 03:33N 54°22' E 018°40'0 0.0
2014-Oct-31 02:33N 54°22' E 018°40'0 0.0
2014-Oct-31 01:33N 54°22' E 018°40'0 0.0
2014-Oct-31 00:33N 54°22' E 018°40'0 0.0
2014-Oct-30 23:33N 54°22' E 018°40'0 0.0
2014-Oct-30 22:33N 54°22' E 018°40'0 0.0
2014-Oct-30 21:33N 54°22' E 018°40'0 0.0
2014-Oct-30 20:33N 54°22' E 018°40'0 0.0
2014-Oct-30 19:32N 54°22' E 018°40'0 0.0
2014-Oct-30 18:33N 54°22' E 018°40'0 0.0
2014-Oct-30 17:32N 54°22' E 018°40'0 0.0
2014-Oct-30 16:33N 54°22' E 018°40'0 0.0
2014-Oct-30 15:32N 54°22' E 018°40'0 0.0
2014-Oct-30 14:32N 54°22' E 018°40'0 0.0
2014-Oct-30 13:32N 54°22' E 018°40'0 0.0
2014-Oct-30 12:32N 54°22' E 018°40'0 0.0
2014-Oct-30 11:32N 54°22' E 018°40'0 0.0
2014-Oct-30 10:32N 54°22' E 018°40'0 0.0
2014-Oct-30 09:32N 54°22' E 018°40'0 0.0
2014-Oct-30 08:32N 54°22' E 018°40'0 0.0
2014-Oct-30 07:33N 54°22' E 018°40'2 1.9
2014-Oct-30 06:33N 54°24' E 018°40'4 3.6
2014-Oct-30 05:33N 54°28' E 018°41'0 0.0
2014-Oct-30 04:31N 54°28' E 018°41'0 0.0
2014-Oct-30 03:31N 54°28' E 018°41'0 0.0
2014-Oct-30 02:31N 54°28' E 018°41'0 0.1
2014-Oct-30 01:31N 54°28' E 018°41'0 0.1
2014-Oct-30 00:31N 54°28' E 018°41'0 0.0
2014-Oct-29 23:31N 54°28' E 018°41'0 0.1
2014-Oct-29 22:31N 54°28' E 018°41'0 0.1
2014-Oct-29 21:31N 54°28' E 018°41'0 0.1
2014-Oct-29 20:31N 54°28' E 018°41'0 0.0
2014-Oct-29 19:31N 54°28' E 018°41'0 0.0
2014-Oct-29 18:31N 54°28' E 018°41'0 0.1
2014-Oct-29 17:31N 54°28' E 018°41'0 0.0
2014-Oct-29 16:34N 54°28' E 018°41'2 2.0
2014-Oct-29 15:34N 54°29' E 018°43'7 6.7
2014-Oct-29 14:34N 54°34' E 018°51'9 9.2
2014-Oct-29 13:34N 54°42' E 018°58'8 8.1
2014-Oct-29 12:33N 54°49' E 018°51'10 9.8
2014-Oct-29 11:34N 54°56' E 018°38'10 9.5
2014-Oct-29 10:33N 55°00' E 018°23'2611.3
2014-Oct-29 08:13N 54°55' E 017°38'1014.1
2014-Oct-29 07:29N 54°52' E 017°21'1110.8
2014-Oct-29 06:30N 54°50' E 017°03'1010.2
2014-Oct-29 05:30N 54°48' E 016°45'4510.3
2014-Oct-29 01:10N 54°41' E 015°29'810.4
2014-Oct-29 00:25N 54°40' E 015°15'910.2
2014-Oct-28 23:33N 54°39' E 015°00'1010.2
2014-Oct-28 22:33N 54°37' E 014°43'1110.0
2014-Oct-28 21:27N 54°36' E 014°24'10 9.7
2014-Oct-28 20:24N 54°39' E 014°07'8 9.5
2014-Oct-28 19:33N 54°44' E 013°56'10 9.6
2014-Oct-28 18:29N 54°51' E 013°43'9 9.6
2014-Oct-28 17:33N 54°58' E 013°33'10 9.7
2014-Oct-28 16:32N 55°04' E 013°20'10 9.7
2014-Oct-28 15:33N 55°11' E 013°08'10 9.6
2014-Oct-28 14:33N 55°14' E 012°53'9 9.4
2014-Oct-28 13:33N 55°19' E 012°38'9 8.9
2014-Oct-28 12:33N 55°28' E 012°41'10 9.5
2014-Oct-28 11:33N 55°37' E 012°42'1312.8
2014-Oct-28 10:33N 55°50' E 012°42'1312.6
2014-Oct-28 09:33N 56°02' E 012°38'9 9.4
2014-Oct-28 08:33N 56°09' E 012°26'9 9.2
2014-Oct-28 07:33N 56°14' E 012°12'10 9.7
2014-Oct-28 06:33N 56°22' E 012°01'10 9.7
2014-Oct-28 05:33N 56°31' E 011°58'10 9.8
2014-Oct-28 04:33N 56°41' E 011°54'10 9.7
2014-Oct-28 03:33N 56°50' E 011°49'9 9.2
2014-Oct-28 02:32N 56°59' E 011°43'9 9.2
2014-Oct-28 01:33N 57°07' E 011°38'9 9.0
2014-Oct-28 00:33N 57°16' E 011°32'9 9.1
2014-Oct-27 23:33N 57°24' E 011°26'10 9.8
2014-Oct-27 22:33N 57°32' E 011°15'1010.0
2014-Oct-27 21:33N 57°39' E 011°02'10 9.6
2014-Oct-27 20:33N 57°45' E 010°49'1110.8
2014-Oct-27 19:33N 57°48' E 010°29'1111.5
2014-Oct-27 18:33N 57°48' E 010°07'439 9.7
2014-Oct-25 21:22N 51°46' E 002°56'1011.9
2014-Oct-25 20:33N 51°43' E 003°11'1111.3
2014-Oct-25 19:33N 51°32' E 003°06'8 8.1
2014-Oct-25 18:34N 51°24' E 003°07'1615.6
2014-Oct-25 17:34N 51°26' E 003°32'7 6.6
2014-Oct-25 16:33N 51°27' E 003°42'0 0.2
2014-Oct-25 15:28N 51°27' E 003°42'0 0.0
2014-Oct-25 14:31N 51°27' E 003°42'0 0.0
2014-Oct-25 13:31N 51°27' E 003°42'0 0.0
2014-Oct-25 12:28N 51°27' E 003°42'0 0.0
2014-Oct-25 11:31N 51°27' E 003°42'0 0.0
2014-Oct-25 10:31N 51°27' E 003°42'0 0.0
2014-Oct-25 09:31N 51°27' E 003°42'0 0.0
2014-Oct-25 08:25N 51°27' E 003°42'0 0.0
2014-Oct-25 07:31N 51°27' E 003°42'0 0.0
2014-Oct-25 06:25N 51°27' E 003°42'0 0.0
2014-Oct-25 05:31N 51°27' E 003°42'0 0.0
2014-Oct-25 04:31N 51°27' E 003°42'0 0.0
2014-Oct-25 03:31N 51°27' E 003°42'0 0.0
2014-Oct-25 02:28N 51°27' E 003°42'0 0.0
2014-Oct-25 01:31N 51°27' E 003°42'0 0.0
2014-Oct-25 00:31N 51°27' E 003°42'0 0.0
2014-Oct-24 23:28N 51°27' E 003°42'0 0.0
2014-Oct-24 22:28N 51°27' E 003°42'0 0.0
2014-Oct-24 21:28N 51°27' E 003°42'0 0.0
2014-Oct-24 20:31N 51°27' E 003°42'0 0.0
2014-Oct-24 19:31N 51°27' E 003°42'0 0.0
2014-Oct-24 18:31N 51°27' E 003°42'0 0.0
2014-Oct-24 17:31N 51°27' E 003°42'0 0.0
2014-Oct-24 16:31N 51°27' E 003°42'0 0.0
2014-Oct-24 15:28N 51°27' E 003°42'0 0.0
2014-Oct-24 14:31N 51°27' E 003°42'0 0.0
2014-Oct-24 13:31N 51°27' E 003°42'0 0.0
2014-Oct-24 12:31N 51°27' E 003°42'0 0.0
2014-Oct-24 11:31N 51°27' E 003°42'0 0.0
2014-Oct-24 10:28N 51°27' E 003°42'0 0.0
2014-Oct-24 09:31N 51°27' E 003°42'0 0.0
2014-Oct-24 08:28N 51°27' E 003°42'0 0.0
2014-Oct-24 07:31N 51°27' E 003°42'0 0.0
2014-Oct-24 06:31N 51°27' E 003°42'0 0.0
2014-Oct-24 05:31N 51°27' E 003°42'0 0.0
2014-Oct-24 04:31N 51°27' E 003°42'0 0.0
2014-Oct-24 03:31N 51°27' E 003°42'0 0.0
2014-Oct-24 02:28N 51°27' E 003°42'0 0.0
2014-Oct-24 01:28N 51°27' E 003°42'0 0.0
2014-Oct-24 00:31N 51°27' E 003°42'0 0.0
2014-Oct-23 23:31N 51°27' E 003°42'0 0.0
2014-Oct-23 22:31N 51°27' E 003°42'0 0.0
2014-Oct-23 21:31N 51°27' E 003°42'0 0.0
2014-Oct-23 20:31N 51°27' E 003°42'0 0.0
2014-Oct-23 19:28N 51°27' E 003°42'0 0.0
2014-Oct-23 18:31N 51°27' E 003°42'0 0.0
2014-Oct-23 17:31N 51°27' E 003°42'0 0.0
2014-Oct-23 16:31N 51°27' E 003°42'0 0.0
2014-Oct-23 15:31N 51°27' E 003°42'0 0.0
2014-Oct-23 14:31N 51°27' E 003°42'0 0.0
2014-Oct-23 13:31N 51°27' E 003°42'0 0.0
2014-Oct-23 12:28N 51°27' E 003°42'0 0.0
2014-Oct-23 11:28N 51°27' E 003°42'0 0.0
2014-Oct-23 10:31N 51°27' E 003°42'0 0.0
2014-Oct-23 09:31N 51°27' E 003°42'0 0.0
2014-Oct-23 08:31N 51°27' E 003°42'0 0.0
2014-Oct-23 07:33N 51°27' E 003°42'1 1.0
2014-Oct-23 06:33N 51°27' E 003°41'4 4.3
2014-Oct-23 05:33N 51°26' E 003°35'10 9.8
2014-Oct-23 04:33N 51°24' E 003°20'1111.1
2014-Oct-23 03:33N 51°25' E 003°02'1211.5
2014-Oct-23 02:32N 51°23' E 002°43'6 6.1
2014-Oct-23 01:33N 51°22' E 002°34'9 8.9
2014-Oct-23 00:33N 51°20' E 002°20'1010.1
2014-Oct-22 23:34N 51°15' E 002°06'1110.9
2014-Oct-22 22:33N 51°09' E 001°51'7 6.6
2014-Oct-22 21:34N 51°02' E 001°49'8 8.4
2014-Oct-22 20:33N 51°03' E 002°02'1211.9
2014-Oct-22 19:33N 51°04' E 002°21'1 0.6
2014-Oct-22 18:33N 51°03' E 002°20'1 1.0
2014-Oct-22 17:33N 51°03' E 002°19'0 0.1
2014-Oct-22 16:33N 51°03' E 002°19'0 0.0
2014-Oct-22 15:33N 51°03' E 002°19'0 0.0
2014-Oct-22 14:33N 51°03' E 002°19'0 0.0
2014-Oct-22 13:33N 51°03' E 002°19'0 0.0
2014-Oct-22 12:33N 51°03' E 002°19'0 0.0
2014-Oct-22 11:30N 51°03' E 002°19'0 0.0
2014-Oct-22 10:33N 51°03' E 002°19'0 0.0
2014-Oct-22 09:33N 51°03' E 002°19'  

Dump ship's entire track history